Time,TemperatureF,DewpointF,PressureIn,WindDirection,WindDirectionDegrees,WindSpeedMPH,WindSpeedGustMPH,Humidity,HourlyPrecipIn,Conditions,Clouds,dailyrainin,SolarRadiationWatts/m^2,SoftwareType,DateUTC
2013-04-18 00:00:00,55.3,54.5,30.07,North,11,0.0,1.0,97,0.00,,---,0.01,0.00,VWS V14.00,2013-04-18 04:00:00,
2013-04-18 00:01:00,55.3,54.5,30.07,North,11,0.0,1.0,97,0.00,,---,0.01,0.00,VWS V14.00,2013-04-18 04:01:00,
2013-04-18 00:02:00,55.4,54.6,30.07,North,10,0.0,0.0,97,0.00,,---,0.00,0.00,VWS V14.00,2013-04-18 04:02:00,
2013-04-18 00:03:00,55.5,54.7,30.07,North,11,0.0,0.0,97,0.00,,---,0.00,0.00,VWS V14.00,2013-04-18 04:03:00,
2013-04-18 00:08:00,55.9,55.1,30.07,North,11,1.0,2.0,97,0.00,,---,0.00,0.00,VWS V14.00,2013-04-18 04:08:00,
2013-04-18 00:13:00,56.2,55.4,30.07,North,11,0.0,3.0,97,0.00,,---,0.00,0.00,VWS V14.00,2013-04-18 04:13:00,
2013-04-18 00:18:00,55.9,54.2,30.07,North,10,0.0,3.0,94,0.00,,---,0.00,0.00,VWS V14.00,2013-04-18 04:18:00,
2013-04-18 00:23:00,55.4,53.4,30.07,North,11,0.0,3.0,93,0.00,,---,0.00,0.00,VWS V14.00,2013-04-18 04:23:00,
2013-04-18 00:28:00,55.0,53.0,30.07,North,10,0.0,3.0,93,0.00,,---,0.00,0.00,VWS V14.00,2013-04-18 04:28:00,
2013-04-18 00:30:00,54.8,52.8,30.07,North,10,0.0,3.0,93,0.00,,---,0.00,0.00,VWS V14.00,2013-04-18 04:30:00,
2013-04-18 00:33:00,54.6,52.6,30.07,North,11,0.0,0.0,93,0.00,,---,0.00,0.00,VWS V14.00,2013-04-18 04:33:00,
2013-04-18 00:38:00,54.3,52.6,30.07,North,11,0.0,0.0,94,0.00,,---,0.00,0.00,VWS V14.00,2013-04-18 04:38:00,
2013-04-18 00:43:00,54.0,52.3,30.07,North,10,0.0,0.0,94,0.00,,---,0.00,0.00,VWS V14.00,2013-04-18 04:43:00,
2013-04-18 00:48:00,53.8,52.4,30.07,North,11,0.0,0.0,95,0.00,,---,0.00,0.00,VWS V14.00,2013-04-18 04:48:00,
2013-04-18 00:53:00,53.7,52.3,30.07,North,11,0.0,0.0,95,0.00,,---,0.00,0.00,VWS V14.00,2013-04-18 04:53:00,
2013-04-18 00:58:00,53.6,52.2,30.07,North,10,0.0,0.0,95,0.00,,---,0.00,0.00,VWS V14.00,2013-04-18 04:58:00,
2013-04-18 01:00:00,53.5,52.1,30.06,North,10,0.0,0.0,95,0.00,,---,0.00,0.00,VWS V14.00,2013-04-18 05:00:00,
2013-04-18 01:04:00,53.4,52.0,30.06,North,11,0.0,0.0,95,0.00,,---,0.00,0.00,VWS V14.00,2013-04-18 05:04:00,
2013-04-18 01:09:00,53.3,51.9,30.06,North,10,0.0,0.0,95,0.00,,---,0.00,0.00,VWS V14.00,2013-04-18 05:09:00,
2013-04-18 01:14:00,53.1,51.7,30.06,North,11,0.0,0.0,95,0.00,,---,0.00,0.00,VWS V14.00,2013-04-18 05:14:00,
2013-04-18 01:19:00,53.0,51.9,30.06,North,10,0.0,1.0,96,0.00,,---,0.00,0.00,VWS V14.00,2013-04-18 05:19:00,
2013-04-18 01:24:00,52.9,51.8,30.06,North,10,0.0,1.0,96,0.00,,---,0.00,0.00,VWS V14.00,2013-04-18 05:24:00,
2013-04-18 01:29:00,52.8,51.7,30.06,North,11,0.0,1.0,96,0.00,,---,0.00,0.00,VWS V14.00,2013-04-18 05:29:00,
2013-04-18 01:30:00,52.7,51.6,30.06,North,11,0.0,1.0,96,0.00,,---,0.00,0.00,VWS V14.00,2013-04-18 05:30:00,
2013-04-18 01:34:00,52.6,51.5,30.06,North,10,0.0,0.0,96,0.00,,---,0.00,0.00,VWS V14.00,2013-04-18 05:34:00,
2013-04-18 01:39:00,52.4,51.3,30.06,North,11,0.0,0.0,96,0.00,,---,0.00,0.00,VWS V14.00,2013-04-18 05:39:00,
2013-04-18 01:44:00,52.3,51.2,30.05,North,10,0.0,0.0,96,0.00,,---,0.00,0.00,VWS V14.00,2013-04-18 05:44:00,
2013-04-18 01:49:00,52.4,51.6,30.05,North,11,0.0,1.0,97,0.00,,---,0.00,0.00,VWS V14.00,2013-04-18 05:49:00,
2013-04-18 01:54:00,52.6,51.8,30.05,North,10,1.0,2.0,97,0.00,,---,0.00,0.00,VWS V14.00,2013-04-18 05:54:00,
2013-04-18 01:59:00,52.5,51.7,30.05,North,11,1.0,3.0,97,0.00,,---,0.00,0.00,VWS V14.00,2013-04-18 05:59:00,
2013-04-18 02:00:00,52.7,51.9,30.05,North,10,0.0,3.0,97,0.00,,---,0.00,0.00,VWS V14.00,2013-04-18 06:00:00,
2013-04-18 02:04:00,52.9,52.1,30.04,North,10,0.0,0.0,97,0.00,,---,0.00,0.00,VWS V14.00,2013-04-18 06:04:00,
2013-04-18 02:09:00,53.1,52.3,30.04,North,10,0.0,0.0,97,0.00,,---,0.00,0.00,VWS V14.00,2013-04-18 06:09:00,
2013-04-18 02:14:00,53.0,52.2,30.04,North,10,0.0,0.0,97,0.00,,---,0.00,0.00,VWS V14.00,2013-04-18 06:14:00,
2013-04-18 02:19:00,53.0,52.2,30.03,North,10,0.0,0.0,97,0.00,,---,0.00,0.00,VWS V14.00,2013-04-18 06:19:00,
2013-04-18 02:24:00,53.0,52.2,30.03,North,10,2.0,3.0,97,0.00,,---,0.00,0.00,VWS V14.00,2013-04-18 06:24:00,
2013-04-18 02:29:00,53.0,52.2,30.03,North,10,1.0,3.0,97,0.00,,---,0.00,0.00,VWS V14.00,2013-04-18 06:29:00,
2013-04-18 02:30:00,53.2,52.4,30.03,North,10,3.0,4.0,97,0.00,,---,0.00,0.00,VWS V14.00,2013-04-18 06:30:00,
2013-04-18 02:34:00,53.4,52.6,30.03,North,10,2.0,3.0,97,0.00,,---,0.00,0.00,VWS V14.00,2013-04-18 06:34:00,
2013-04-18 02:39:00,53.8,53.2,30.03,North,10,0.0,3.0,98,0.00,,---,0.00,0.00,VWS V14.00,2013-04-18 06:39:00,
2013-04-18 02:44:00,54.1,53.5,30.02,North,11,0.0,3.0,98,0.00,,---,0.00,0.00,VWS V14.00,2013-04-18 06:44:00,
2013-04-18 02:49:00,54.2,53.7,30.02,North,11,0.0,3.0,98,0.00,,---,0.00,0.00,VWS V14.00,2013-04-18 06:49:00,
2013-04-18 02:54:00,54.6,54.0,30.02,NNE,19,0.0,3.0,98,0.00,,---,0.00,0.00,VWS V14.00,2013-04-18 06:54:00,
2013-04-18 02:59:00,55.5,55.0,30.01,NNE,32,0.0,3.0,98,0.00,,---,0.00,0.00,VWS V14.00,2013-04-18 06:59:00,
2013-04-18 03:00:00,55.8,55.2,30.01,NNE,32,0.0,3.0,98,0.00,,---,0.00,0.00,VWS V14.00,2013-04-18 07:00:00,
2013-04-18 03:04:00,56.0,55.5,30.01,NE,43,0.0,2.0,98,0.00,,---,0.00,0.00,VWS V14.00,2013-04-18 07:04:00,
2013-04-18 03:09:00,56.4,55.8,30.01,East,93,1.0,4.0,98,0.00,,---,0.00,0.00,VWS V14.00,2013-04-18 07:09:00,
2013-04-18 03:14:00,56.7,56.1,30.01,ESE,109,2.0,6.0,98,0.00,,---,0.00,0.00,VWS V14.00,2013-04-18 07:14:00,
2013-04-18 03:19:00,57.1,56.3,30.00,ESE,118,0.0,6.0,97,0.00,,---,0.00,0.00,VWS V14.00,2013-04-18 07:19:00,
2013-04-18 03:24:00,57.6,56.8,30.00,East,94,2.0,6.0,97,0.00,,---,0.00,0.00,VWS V14.00,2013-04-18 07:24:00,
2013-04-18 03:29:00,58.3,57.2,30.00,SSW,192,3.0,7.0,96,0.00,,---,0.00,0.00,VWS V14.00,2013-04-18 07:29:00,
2013-04-18 03:30:00,58.6,57.2,30.00,NE,53,1.0,7.0,95,0.00,,---,0.00,0.00,VWS V14.00,2013-04-18 07:30:00,
2013-04-18 03:34:00,59.0,57.3,29.99,ESE,115,0.0,4.0,94,0.00,,---,0.00,0.00,VWS V14.00,2013-04-18 07:34:00,
2013-04-18 03:39:00,59.5,57.5,29.99,East,84,2.0,9.0,93,0.00,,---,0.00,0.00,VWS V14.00,2013-04-18 07:39:00,
2013-04-18 03:44:00,60.2,57.9,30.00,South,175,2.0,9.0,92,0.00,,---,0.00,0.00,VWS V14.00,2013-04-18 07:44:00,
2013-04-18 03:49:00,60.5,57.6,29.99,SE,146,1.0,9.0,90,0.00,,---,0.00,0.00,VWS V14.00,2013-04-18 07:49:00,
2013-04-18 03:54:00,60.8,57.8,29.99,South,169,1.0,9.0,90,0.00,,---,0.00,0.00,VWS V14.00,2013-04-18 07:54:00,
2013-04-18 03:59:00,61.0,57.7,29.98,ENE,65,1.0,9.0,89,0.00,,---,0.00,0.00,VWS V14.00,2013-04-18 07:59:00,
2013-04-18 04:00:00,61.1,57.8,29.98,SSW,209,0.0,9.0,89,0.00,,---,0.00,0.00,VWS V14.00,2013-04-18 08:00:00,
2013-04-18 04:05:00,61.3,58.0,29.98,SSE,165,0.0,8.0,89,0.00,,---,0.00,0.00,VWS V14.00,2013-04-18 08:05:00,
2013-04-18 04:09:00,61.4,57.8,29.98,SSE,168,6.0,11.0,88,0.00,,---,0.00,0.00,VWS V14.00,2013-04-18 08:09:00,
2013-04-18 04:14:00,61.7,58.1,29.98,South,191,0.0,11.0,88,0.00,,---,0.00,0.00,VWS V14.00,2013-04-18 08:14:00,
2013-04-18 04:20:00,61.9,58.0,29.97,East,81,2.0,11.0,87,0.00,,---,0.00,0.00,VWS V14.00,2013-04-18 08:20:00,
2013-04-18 04:25:00,61.9,58.0,29.97,South,178,4.0,11.0,87,0.00,,---,0.00,0.00,VWS V14.00,2013-04-18 08:25:00,
2013-04-18 04:30:00,62.0,58.1,29.97,East,80,2.0,11.0,87,0.00,,---,0.00,0.00,VWS V14.00,2013-04-18 08:30:00,
2013-04-18 04:35:00,62.2,58.3,29.97,ENE,73,2.0,5.0,87,0.00,,---,0.00,0.00,VWS V14.00,2013-04-18 08:35:00,
2013-04-18 04:40:00,62.3,58.1,29.97,East,86,3.0,8.0,86,0.00,,---,0.00,0.00,VWS V14.00,2013-04-18 08:40:00,
2013-04-18 04:45:00,62.3,58.1,29.97,East,80,2.0,8.0,86,0.00,,---,0.00,0.00,VWS V14.00,2013-04-18 08:45:00,
2013-04-18 04:50:00,62.3,58.1,29.96,SW,225,4.0,8.0,86,0.00,,---,0.00,0.00,VWS V14.00,2013-04-18 08:50:00,
2013-04-18 04:55:00,62.3,58.1,29.96,East,86,3.0,8.0,86,0.00,,---,0.00,0.00,VWS V14.00,2013-04-18 08:55:00,
2013-04-18 05:00:00,62.4,58.2,29.96,East,83,2.0,8.0,86,0.00,,---,0.00,0.00,VWS V14.00,2013-04-18 09:00:00,
2013-04-18 05:05:00,62.6,58.4,29.96,WSW,257,1.0,7.0,86,0.00,,---,0.00,0.00,VWS V14.00,2013-04-18 09:05:00,
2013-04-18 05:10:00,62.8,58.2,29.96,ESE,109,2.0,8.0,85,0.00,,---,0.00,0.00,VWS V14.00,2013-04-18 09:10:00,
2013-04-18 05:15:00,62.8,58.2,29.96,ESE,117,1.0,8.0,85,0.00,,---,0.00,0.00,VWS V14.00,2013-04-18 09:15:00,
2013-04-18 05:20:00,62.8,58.2,29.96,East,98,0.0,8.0,85,0.00,,---,0.00,0.00,VWS V14.00,2013-04-18 09:20:00,
2013-04-18 05:25:00,62.7,58.1,29.95,SSE,151,0.0,8.0,85,0.00,,---,0.00,0.00,VWS V14.00,2013-04-18 09:25:00,
2013-04-18 05:30:00,62.7,58.1,29.95,ESE,111,2.0,8.0,85,0.00,,---,0.00,0.00,VWS V14.00,2013-04-18 09:30:00,
2013-04-18 05:35:00,62.7,58.1,29.96,ESE,105,5.0,6.0,85,0.00,,---,0.00,0.00,VWS V14.00,2013-04-18 09:35:00,
2013-04-18 05:40:00,62.8,58.2,29.96,East,101,0.0,6.0,85,0.00,,---,0.00,0.00,VWS V14.00,2013-04-18 09:40:00,
2013-04-18 05:45:00,62.7,58.1,29.96,SW,227,0.0,6.0,85,0.00,,---,0.00,0.00,VWS V14.00,2013-04-18 09:45:00,
2013-04-18 05:50:00,62.8,58.2,29.96,SSE,155,4.0,11.0,85,0.00,,---,0.00,0.00,VWS V14.00,2013-04-18 09:50:00,
2013-04-18 05:55:00,62.8,58.2,29.96,ESE,111,4.0,11.0,85,0.00,,---,0.00,0.00,VWS V14.00,2013-04-18 09:55:00,
2013-04-18 06:00:00,62.8,58.2,29.97,SSE,165,0.0,11.0,85,0.00,,---,0.00,0.00,VWS V14.00,2013-04-18 10:00:00,
2013-04-18 06:05:00,62.7,58.1,29.97,SSE,147,0.0,4.0,85,0.00,,---,0.00,0.00,VWS V14.00,2013-04-18 10:05:00,
2013-04-18 06:10:00,62.6,58.0,29.96,SE,133,0.0,4.0,85,0.00,,---,0.00,0.00,VWS V14.00,2013-04-18 10:10:00,
2013-04-18 06:15:00,62.5,57.9,29.96,SSE,162,4.0,5.0,85,0.00,,---,0.00,0.00,VWS V14.00,2013-04-18 10:15:00,
2013-04-18 06:20:00,62.5,57.9,29.96,South,191,3.0,7.0,85,0.00,,---,0.00,0.00,VWS V14.00,2013-04-18 10:20:00,
2013-04-18 06:25:00,62.6,58.0,29.97,South,188,1.0,7.0,85,0.00,,---,0.00,0.00,VWS V14.00,2013-04-18 10:25:00,
2013-04-18 06:30:00,62.6,58.0,29.97,SSE,150,0.0,7.0,85,0.00,,---,0.00,0.00,VWS V14.00,2013-04-18 10:30:00,
2013-04-18 06:35:00,62.8,58.2,29.97,SSE,161,0.0,4.0,85,0.00,,---,0.00,0.00,VWS V14.00,2013-04-18 10:35:00,
2013-04-18 06:40:00,62.9,58.0,29.97,South,188,3.0,4.0,84,0.00,,---,0.00,5.00,VWS V14.00,2013-04-18 10:40:00,
2013-04-18 06:45:00,62.9,58.0,29.97,SSW,197,0.0,4.0,84,0.00,,---,0.00,7.00,VWS V14.00,2013-04-18 10:45:00,
2013-04-18 06:50:00,62.9,58.3,29.98,SW,214,0.0,8.0,85,0.00,,---,0.00,11.00,VWS V14.00,2013-04-18 10:50:00,
2013-04-18 06:55:00,63.0,58.1,29.98,SW,214,0.0,8.0,84,0.00,,---,0.00,14.00,VWS V14.00,2013-04-18 10:55:00,
2013-04-18 07:00:00,62.9,58.0,29.98,South,184,0.0,8.0,84,0.00,,---,0.00,18.00,VWS V14.00,2013-04-18 11:00:00,
2013-04-18 07:05:00,62.8,57.9,29.98,South,184,0.0,0.0,84,0.00,,---,0.00,19.00,VWS V14.00,2013-04-18 11:05:00,
2013-04-18 07:10:00,62.7,58.1,29.98,South,184,0.0,0.0,85,0.00,,---,0.00,23.00,VWS V14.00,2013-04-18 11:10:00,
2013-04-18 07:15:00,62.6,58.0,29.98,South,184,0.0,1.0,85,0.00,,---,0.00,30.00,VWS V14.00,2013-04-18 11:15:00,
2013-04-18 07:20:00,62.6,58.0,29.98,South,178,0.0,1.0,85,0.00,,---,0.00,28.00,VWS V14.00,2013-04-18 11:20:00,
2013-04-18 07:25:00,62.7,58.1,29.99,South,178,0.0,1.0,85,0.00,,---,0.00,32.00,VWS V14.00,2013-04-18 11:25:00,
2013-04-18 07:30:00,62.7,58.1,29.99,South,178,0.0,2.0,85,0.00,,---,0.00,44.00,VWS V14.00,2013-04-18 11:30:00,
2013-04-18 07:36:00,62.8,58.2,29.99,South,178,0.0,2.0,85,0.00,,---,0.00,62.00,VWS V14.00,2013-04-18 11:36:00,
2013-04-18 07:41:00,62.9,58.3,29.99,South,179,0.0,2.0,85,0.00,,---,0.00,72.00,VWS V14.00,2013-04-18 11:41:00,
2013-04-18 07:46:00,63.2,58.6,29.99,South,171,0.0,2.0,85,0.00,,---,0.00,77.00,VWS V14.00,2013-04-18 11:46:00,
2013-04-18 07:51:00,63.5,58.9,29.99,South,186,0.0,2.0,85,0.00,,---,0.00,120.00,VWS V14.00,2013-04-18 11:51:00,
2013-04-18 07:56:00,63.9,59.0,29.99,ESE,107,2.0,2.0,84,0.00,,---,0.00,100.00,VWS V14.00,2013-04-18 11:56:00,
2013-04-18 08:00:00,64.5,59.2,29.99,SSE,147,2.0,3.0,83,0.00,,---,0.00,114.00,VWS V14.00,2013-04-18 12:00:00,
2013-04-18 08:01:00,64.4,59.1,29.99,SE,143,0.0,3.0,83,0.00,,---,0.00,114.00,VWS V14.00,2013-04-18 12:01:00,
2013-04-18 08:06:00,64.9,59.6,29.99,SSW,195,2.0,2.0,83,0.00,,---,0.00,77.00,VWS V14.00,2013-04-18 12:06:00,
2013-04-18 08:11:00,65.2,59.6,29.99,South,173,1.0,4.0,82,0.00,,---,0.00,105.00,VWS V14.00,2013-04-18 12:11:00,
2013-04-18 08:16:00,65.7,60.1,29.99,ESE,118,0.0,4.0,82,0.00,,---,0.00,113.00,VWS V14.00,2013-04-18 12:16:00,
2013-04-18 08:21:00,66.0,60.0,29.98,ESE,117,5.0,5.0,81,0.00,,---,0.00,127.00,VWS V14.00,2013-04-18 12:21:00,
2013-04-18 08:26:00,66.5,59.8,29.99,ESE,121,4.0,5.0,79,0.00,,---,0.00,162.00,VWS V14.00,2013-04-18 12:26:00,
2013-04-18 08:30:00,67.0,60.3,29.98,South,176,4.0,5.0,79,0.00,,---,0.00,130.00,VWS V14.00,2013-04-18 12:30:00,
2013-04-18 08:31:00,67.1,60.4,29.98,South,176,2.0,4.0,79,0.00,,---,0.00,130.00,VWS V14.00,2013-04-18 12:31:00,
2013-04-18 08:36:00,67.6,60.9,29.99,South,181,0.0,5.0,79,0.00,,---,0.00,288.00,VWS V14.00,2013-04-18 12:36:00,
2013-04-18 08:42:00,68.2,60.7,29.99,South,171,0.0,8.0,77,0.00,,---,0.00,334.00,VWS V14.00,2013-04-18 12:42:00,
2013-04-18 08:47:00,68.9,61.0,29.99,South,182,1.0,8.0,76,0.00,,---,0.00,352.00,VWS V14.00,2013-04-18 12:47:00,
2013-04-18 08:52:00,69.6,61.3,29.98,SSE,162,0.0,8.0,75,0.00,,---,0.00,367.00,VWS V14.00,2013-04-18 12:52:00,
2013-04-18 08:57:00,70.3,61.6,29.98,South,170,2.0,8.0,74,0.00,,---,0.00,387.00,VWS V14.00,2013-04-18 12:57:00,
2013-04-18 09:00:00,70.8,62.1,29.98,SSW,201,1.0,8.0,74,0.00,,---,0.00,399.00,VWS V14.00,2013-04-18 13:00:00,
2013-04-18 09:02:00,70.9,62.2,29.98,South,185,6.0,6.0,74,0.00,,---,0.00,403.00,VWS V14.00,2013-04-18 13:02:00,
2013-04-18 09:07:00,71.4,62.3,29.97,SSW,213,8.0,10.0,73,0.00,,---,0.00,420.00,VWS V14.00,2013-04-18 13:07:00,
2013-04-18 09:12:00,71.7,61.8,29.97,SSW,205,3.0,10.0,71,0.00,,---,0.00,436.00,VWS V14.00,2013-04-18 13:12:00,
2013-04-18 09:17:00,72.1,61.8,29.97,SW,230,2.0,13.0,70,0.00,,---,0.00,457.00,VWS V14.00,2013-04-18 13:17:00,
2013-04-18 09:22:00,72.4,61.7,29.97,South,178,5.0,13.0,69,0.00,,---,0.00,473.00,VWS V14.00,2013-04-18 13:22:00,
2013-04-18 09:27:00,72.8,62.0,29.97,SSE,148,1.0,13.0,69,0.00,,---,0.00,487.00,VWS V14.00,2013-04-18 13:27:00,
2013-04-18 09:30:00,73.1,62.3,29.97,ESE,119,0.0,13.0,69,0.00,,---,0.00,499.00,VWS V14.00,2013-04-18 13:30:00,
2013-04-18 09:32:00,73.2,62.0,29.97,South,182,3.0,7.0,68,0.00,,---,0.00,503.00,VWS V14.00,2013-04-18 13:32:00,
2013-04-18 09:37:00,73.5,62.3,29.97,ESE,105,1.0,8.0,68,0.00,,---,0.00,517.00,VWS V14.00,2013-04-18 13:37:00,
2013-04-18 09:42:00,73.7,62.5,29.97,NE,34,2.0,10.0,68,0.00,,---,0.00,534.00,VWS V14.00,2013-04-18 13:42:00,
2013-04-18 09:47:00,73.9,62.3,29.97,WSW,244,0.0,10.0,67,0.00,,---,0.00,545.00,VWS V14.00,2013-04-18 13:47:00,
2013-04-18 09:52:00,74.3,62.6,29.97,East,94,2.0,10.0,67,0.00,,---,0.00,568.00,VWS V14.00,2013-04-18 13:52:00,
2013-04-18 09:57:00,74.7,62.6,29.97,South,175,0.0,11.0,66,0.00,,---,0.00,582.00,VWS V14.00,2013-04-18 13:57:00,
2013-04-18 10:00:00,75.0,63.3,29.97,SSW,208,4.0,11.0,67,0.00,,---,0.00,589.00,VWS V14.00,2013-04-18 14:00:00,
2013-04-18 10:02:00,75.1,63.4,29.97,SSE,167,1.0,5.0,67,0.00,,---,0.00,594.00,VWS V14.00,2013-04-18 14:02:00,
2013-04-18 10:07:00,75.5,62.5,29.97,South,181,0.0,9.0,64,0.00,,---,0.00,608.00,VWS V14.00,2013-04-18 14:07:00,
2013-04-18 10:12:00,75.8,63.2,29.96,WNW,288,2.0,9.0,65,0.00,,---,0.00,621.00,VWS V14.00,2013-04-18 14:12:00,
2013-04-18 10:17:00,76.2,63.1,29.97,SSW,206,3.0,9.0,64,0.00,,---,0.00,636.00,VWS V14.00,2013-04-18 14:17:00,
2013-04-18 10:22:00,76.6,62.6,29.96,SE,126,6.0,11.0,62,0.00,,---,0.00,633.00,VWS V14.00,2013-04-18 14:22:00,
2013-04-18 10:27:00,76.7,62.2,29.96,SW,219,3.0,13.0,61,0.00,,---,0.00,661.00,VWS V14.00,2013-04-18 14:27:00,
2013-04-18 10:30:00,76.9,62.4,29.96,SE,143,8.0,13.0,61,0.00,,---,0.00,719.00,VWS V14.00,2013-04-18 14:30:00,
2013-04-18 10:32:00,76.9,63.4,29.96,WSW,257,5.0,11.0,63,0.00,,---,0.00,733.00,VWS V14.00,2013-04-18 14:32:00,
2013-04-18 10:37:00,77.0,62.5,29.96,SW,218,5.0,11.0,61,0.00,,---,0.00,677.00,VWS V14.00,2013-04-18 14:37:00,
2013-04-18 10:42:00,77.0,62.1,29.96,South,173,5.0,12.0,60,0.00,,---,0.00,759.00,VWS V14.00,2013-04-18 14:42:00,
2013-04-18 10:47:00,77.1,62.6,29.95,SSW,196,4.0,12.0,61,0.00,,---,0.00,594.00,VWS V14.00,2013-04-18 14:47:00,
2013-04-18 10:52:00,77.5,62.5,29.95,SSE,159,0.0,13.0,60,0.00,,---,0.00,747.00,VWS V14.00,2013-04-18 14:52:00,
2013-04-18 10:58:00,78.0,62.5,29.96,SSE,160,1.0,13.0,59,0.00,,---,0.00,749.00,VWS V14.00,2013-04-18 14:58:00,
2013-04-18 11:00:00,78.3,63.3,29.95,South,180,2.0,13.0,60,0.00,,---,0.00,772.00,VWS V14.00,2013-04-18 15:00:00,
2013-04-18 11:03:00,78.5,64.0,29.95,SSW,194,4.0,7.0,61,0.00,,---,0.00,766.00,VWS V14.00,2013-04-18 15:03:00,
2013-04-18 11:08:00,79.0,64.4,29.95,SSW,193,2.0,7.0,61,0.00,,---,0.00,867.00,VWS V14.00,2013-04-18 15:08:00,
2013-04-18 11:13:00,79.1,63.1,29.95,WNW,286,4.0,7.0,58,0.00,,---,0.00,281.00,VWS V14.00,2013-04-18 15:13:00,
2013-04-18 11:18:00,79.1,63.1,29.95,SSE,161,0.0,8.0,58,0.00,,---,0.00,262.00,VWS V14.00,2013-04-18 15:18:00,
2013-04-18 11:23:00,78.8,62.8,29.95,SSE,151,1.0,8.0,58,0.00,,---,0.00,221.00,VWS V14.00,2013-04-18 15:23:00,
2013-04-18 11:28:00,78.4,61.9,29.94,SSW,194,4.0,8.0,57,0.00,,---,0.00,283.00,VWS V14.00,2013-04-18 15:28:00,
2013-04-18 11:30:00,78.3,62.8,29.94,WNW,284,0.0,9.0,59,0.00,,---,0.00,770.00,VWS V14.00,2013-04-18 15:30:00,
2013-04-18 11:33:00,78.3,64.2,29.94,West,263,3.0,4.0,62,0.00,,---,0.00,373.00,VWS V14.00,2013-04-18 15:33:00,
2013-04-18 11:38:00,78.7,63.7,29.94,SSE,163,0.0,6.0,60,0.00,,---,0.00,844.00,VWS V14.00,2013-04-18 15:38:00,
2013-04-18 11:43:00,79.2,64.6,29.94,South,171,0.0,9.0,61,0.00,,---,0.00,969.00,VWS V14.00,2013-04-18 15:43:00,
2013-04-18 11:48:00,79.8,65.2,29.93,WNW,302,0.0,9.0,61,0.00,,---,0.00,410.00,VWS V14.00,2013-04-18 15:48:00,
2013-04-18 11:53:00,80.2,63.1,29.93,WSW,244,4.0,11.0,56,0.00,,---,0.00,1002.00,VWS V14.00,2013-04-18 15:53:00,
2013-04-18 11:58:00,80.4,63.3,29.92,SE,139,0.0,11.0,56,0.00,,---,0.00,330.00,VWS V14.00,2013-04-18 15:58:00,
2013-04-18 12:00:00,80.6,63.0,29.92,NE,47,3.0,11.0,55,0.00,,---,0.00,330.00,VWS V14.00,2013-04-18 16:00:00,
2013-04-18 12:03:00,80.7,63.6,29.92,WSW,249,7.0,7.0,56,0.00,,---,0.00,1021.00,VWS V14.00,2013-04-18 16:03:00,
2013-04-18 12:08:00,81.0,62.8,29.92,SSE,168,6.0,7.0,54,0.00,,---,0.00,359.00,VWS V14.00,2013-04-18 16:08:00,
2013-04-18 12:13:00,81.2,63.5,29.92,South,186,0.0,7.0,55,0.00,,---,0.00,1027.00,VWS V14.00,2013-04-18 16:13:00,
2013-04-18 12:18:00,81.6,64.9,29.91,SSW,198,2.0,8.0,57,0.00,,---,0.00,951.00,VWS V14.00,2013-04-18 16:18:00,
2013-04-18 12:23:00,81.8,63.0,29.91,South,185,4.0,14.0,53,0.00,,---,0.00,888.00,VWS V14.00,2013-04-18 16:23:00,
2013-04-18 12:28:00,81.7,62.4,29.90,SE,140,4.0,14.0,52,0.00,,---,0.00,907.00,VWS V14.00,2013-04-18 16:28:00,
2013-04-18 12:30:00,81.6,63.4,29.90,SSW,208,1.0,14.0,54,0.00,,---,0.00,907.00,VWS V14.00,2013-04-18 16:30:00,
2013-04-18 12:33:00,81.6,62.8,29.90,ESE,105,5.0,6.0,53,0.00,,---,0.00,918.00,VWS V14.00,2013-04-18 16:33:00,
2013-04-18 12:38:00,81.6,61.7,29.90,ESE,112,11.0,11.0,51,0.00,,---,0.00,898.00,VWS V14.00,2013-04-18 16:38:00,
2013-04-18 12:43:00,81.4,62.1,29.90,WSW,238,1.0,11.0,52,0.00,,---,0.00,947.00,VWS V14.00,2013-04-18 16:43:00,
2013-04-18 12:48:00,81.1,61.3,29.89,South,180,1.0,11.0,51,0.00,,---,0.00,223.00,VWS V14.00,2013-04-18 16:48:00,
2013-04-18 12:53:00,81.0,62.3,29.89,SE,145,4.0,11.0,53,0.00,,---,0.00,965.00,VWS V14.00,2013-04-18 16:53:00,
2013-04-18 12:58:00,81.4,62.1,29.88,SSW,203,3.0,11.0,52,0.00,,---,0.00,951.00,VWS V14.00,2013-04-18 16:58:00,
2013-04-18 13:00:00,81.6,62.8,29.88,WSW,237,2.0,11.0,53,0.00,,---,0.00,946.00,VWS V14.00,2013-04-18 17:00:00,
2013-04-18 13:04:00,81.8,63.0,29.88,SSW,205,4.0,8.0,53,0.00,,---,0.00,947.00,VWS V14.00,2013-04-18 17:04:00,
2013-04-18 13:09:00,82.1,63.8,29.88,SE,128,4.0,11.0,54,0.00,,---,0.00,963.00,VWS V14.00,2013-04-18 17:09:00,
2013-04-18 13:14:00,82.1,63.8,29.87,WSW,238,6.0,14.0,54,0.00,,---,0.00,942.00,VWS V14.00,2013-04-18 17:14:00,
2013-04-18 13:19:00,82.0,62.1,29.87,South,190,5.0,14.0,51,0.00,,---,0.00,193.00,VWS V14.00,2013-04-18 17:19:00,
2013-04-18 13:24:00,81.9,62.0,29.87,West,270,12.0,14.0,51,0.00,,---,0.00,1016.00,VWS V14.00,2013-04-18 17:24:00,
2013-04-18 13:29:00,82.0,63.7,29.87,WSW,242,12.0,20.0,54,0.00,,---,0.00,828.00,VWS V14.00,2013-04-18 17:29:00,
2013-04-18 13:30:00,82.0,62.1,29.86,SW,223,1.0,20.0,51,0.00,,---,0.00,911.00,VWS V14.00,2013-04-18 17:30:00,
2013-04-18 13:34:00,82.1,63.8,29.86,ENE,69,2.0,5.0,54,0.00,,---,0.00,928.00,VWS V14.00,2013-04-18 17:34:00,
2013-04-18 13:39:00,82.7,65.9,29.85,SW,215,0.0,11.0,57,0.00,,---,0.00,904.00,VWS V14.00,2013-04-18 17:39:00,
2013-04-18 13:44:00,83.3,63.9,29.85,South,173,2.0,11.0,52,0.00,,---,0.00,928.00,VWS V14.00,2013-04-18 17:44:00,
2013-04-18 13:49:00,83.4,62.3,29.85,South,182,7.0,11.0,49,0.00,,---,0.00,953.00,VWS V14.00,2013-04-18 17:49:00,
2013-04-18 13:54:00,83.1,62.5,29.84,SSE,150,9.0,11.0,50,0.00,,---,0.00,916.00,VWS V14.00,2013-04-18 17:54:00,
2013-04-18 13:59:00,83.2,62.7,29.84,East,88,0.0,11.0,50,0.00,,---,0.00,918.00,VWS V14.00,2013-04-18 17:59:00,
2013-04-18 14:00:00,83.3,63.3,29.84,SSW,207,7.0,11.0,51,0.00,,---,0.00,921.00,VWS V14.00,2013-04-18 18:00:00,
2013-04-18 14:04:00,83.5,63.5,29.84,NE,54,4.0,13.0,51,0.00,,---,0.00,947.00,VWS V14.00,2013-04-18 18:04:00,
2013-04-18 14:09:00,83.7,62.0,29.83,SW,220,2.0,13.0,48,0.00,,---,0.00,269.00,VWS V14.00,2013-04-18 18:09:00,
2013-04-18 14:14:00,83.8,61.4,29.83,South,169,7.0,13.0,47,0.00,,---,0.00,181.00,VWS V14.00,2013-04-18 18:14:00,
2013-04-18 14:19:00,83.3,61.6,29.83,SSW,211,4.0,13.0,48,0.00,,---,0.00,257.00,VWS V14.00,2013-04-18 18:19:00,
2013-04-18 14:24:00,83.2,63.2,29.83,SSE,156,6.0,13.0,51,0.00,,---,0.00,283.00,VWS V14.00,2013-04-18 18:24:00,
2013-04-18 14:29:00,83.5,61.8,29.83,West,259,2.0,20.0,48,0.00,,---,0.00,986.00,VWS V14.00,2013-04-18 18:29:00,
2013-04-18 14:30:00,83.6,61.3,29.83,SE,130,1.0,20.0,47,0.00,,---,0.00,1007.00,VWS V14.00,2013-04-18 18:30:00,
2013-04-18 14:34:00,83.8,63.2,29.83,SSE,154,5.0,6.0,50,0.00,,---,0.00,1007.00,VWS V14.00,2013-04-18 18:34:00,
2013-04-18 14:39:00,84.1,64.0,29.83,SE,140,6.0,12.0,51,0.00,,---,0.00,294.00,VWS V14.00,2013-04-18 18:39:00,
2013-04-18 14:44:00,84.1,60.5,29.82,SSE,164,10.0,12.0,45,0.00,,---,0.00,232.00,VWS V14.00,2013-04-18 18:44:00,
2013-04-18 14:49:00,83.7,60.1,29.82,SSE,166,0.0,12.0,45,0.00,,---,0.00,1027.00,VWS V14.00,2013-04-18 18:49:00,
2013-04-18 14:54:00,83.9,60.3,29.82,SSW,194,5.0,12.0,45,0.00,,---,0.00,958.00,VWS V14.00,2013-04-18 18:54:00,
2013-04-18 14:59:00,84.5,61.5,29.81,SSW,211,4.0,12.0,46,0.00,,---,0.00,918.00,VWS V14.00,2013-04-18 18:59:00,
2013-04-18 15:00:00,84.6,61.6,29.81,SW,232,3.0,12.0,46,0.00,,---,0.00,977.00,VWS V14.00,2013-04-18 19:00:00,
2013-04-18 15:04:00,84.7,62.3,29.81,ESE,111,5.0,10.0,47,0.00,,---,0.00,977.00,VWS V14.00,2013-04-18 19:04:00,
2013-04-18 15:09:00,85.0,63.7,29.81,SSW,194,6.0,10.0,49,0.00,,---,0.00,884.00,VWS V14.00,2013-04-18 19:09:00,
2013-04-18 15:14:00,85.0,60.7,29.81,ESE,119,4.0,11.0,44,0.00,,---,0.00,213.00,VWS V14.00,2013-04-18 19:14:00,
2013-04-18 15:19:00,84.5,60.2,29.80,SE,142,6.0,11.0,44,0.00,,---,0.00,290.00,VWS V14.00,2013-04-18 19:19:00,
2013-04-18 15:24:00,84.1,60.5,29.80,SW,218,1.0,11.0,45,0.00,,---,0.00,325.00,VWS V14.00,2013-04-18 19:24:00,
2013-04-18 15:29:00,84.2,60.0,29.80,NNE,28,4.0,12.0,44,0.00,,---,0.00,914.00,VWS V14.00,2013-04-18 19:29:00,
2013-04-18 15:30:00,84.3,60.0,29.80,SSE,167,4.0,12.0,44,0.00,,---,0.00,306.00,VWS V14.00,2013-04-18 19:30:00,
2013-04-18 15:34:00,84.1,59.9,29.80,SSW,208,2.0,12.0,44,0.00,,---,0.00,288.00,VWS V14.00,2013-04-18 19:34:00,
2013-04-18 15:39:00,83.9,59.7,29.79,SSE,162,2.0,12.0,44,0.00,,---,0.00,295.00,VWS V14.00,2013-04-18 19:39:00,
2013-04-18 15:44:00,83.9,60.3,29.80,SSW,208,4.0,12.0,45,0.00,,---,0.00,221.00,VWS V14.00,2013-04-18 19:44:00,
2013-04-18 15:49:00,83.6,59.4,29.80,South,183,3.0,12.0,44,0.00,,---,0.00,338.00,VWS V14.00,2013-04-18 19:49:00,
2013-04-18 15:54:00,83.9,59.0,29.79,SSE,165,4.0,13.0,43,0.00,,---,0.00,803.00,VWS V14.00,2013-04-18 19:54:00,
2013-04-18 15:59:00,84.2,59.3,29.79,SSW,198,7.0,13.0,43,0.00,,---,0.00,220.00,VWS V14.00,2013-04-18 19:59:00,
2013-04-18 16:00:00,84.2,60.0,29.79,North,5,7.0,13.0,44,0.00,,---,0.00,251.00,VWS V14.00,2013-04-18 20:00:00,
2013-04-18 16:04:00,84.1,59.2,29.79,SSW,205,3.0,19.0,43,0.00,,---,0.00,308.00,VWS V14.00,2013-04-18 20:04:00,
2013-04-18 16:09:00,84.6,60.3,29.79,SE,137,7.0,19.0,44,0.00,,---,0.00,272.00,VWS V14.00,2013-04-18 20:09:00,
2013-04-18 16:15:00,84.7,60.4,29.79,East,84,0.0,19.0,44,0.00,,---,0.00,225.00,VWS V14.00,2013-04-18 20:15:00,
2013-04-18 16:20:00,84.5,58.2,29.79,SSW,193,0.0,19.0,41,0.00,,---,0.00,232.00,VWS V14.00,2013-04-18 20:20:00,
2013-04-18 16:25:00,84.1,58.5,29.79,SW,227,2.0,19.0,42,0.00,,---,0.00,197.00,VWS V14.00,2013-04-18 20:25:00,
2013-04-18 16:30:00,83.7,58.2,29.79,SSW,208,5.0,19.0,42,0.00,,---,0.00,172.00,VWS V14.00,2013-04-18 20:30:00,
2013-04-18 16:35:00,83.4,58.6,29.79,SE,130,0.0,9.0,43,0.00,,---,0.00,193.00,VWS V14.00,2013-04-18 20:35:00,
2013-04-18 16:40:00,83.2,59.0,29.78,SE,124,4.0,10.0,44,0.00,,---,0.00,183.00,VWS V14.00,2013-04-18 20:40:00,
2013-04-18 16:45:00,83.1,58.3,29.78,South,188,3.0,10.0,43,0.00,,---,0.00,221.00,VWS V14.00,2013-04-18 20:45:00,
2013-04-18 16:50:00,83.0,58.9,29.78,SSE,157,1.0,10.0,44,0.00,,---,0.00,236.00,VWS V14.00,2013-04-18 20:50:00,
2013-04-18 16:55:00,83.1,59.0,29.77,South,180,9.0,10.0,44,0.00,,---,0.00,248.00,VWS V14.00,2013-04-18 20:55:00,
2013-04-18 17:00:00,83.0,58.2,29.77,ENE,76,4.0,14.0,43,0.00,,---,0.00,195.00,VWS V14.00,2013-04-18 21:00:00,
2013-04-18 17:05:00,82.9,58.8,29.77,SE,130,1.0,11.0,44,0.00,,---,0.00,202.00,VWS V14.00,2013-04-18 21:05:00,
2013-04-18 17:10:00,82.8,58.7,29.77,SSE,157,2.0,15.0,44,0.00,,---,0.00,183.00,VWS V14.00,2013-04-18 21:10:00,
2013-04-18 17:15:00,82.8,59.3,29.77,East,85,4.0,15.0,45,0.00,,---,0.00,221.00,VWS V14.00,2013-04-18 21:15:00,
2013-04-18 17:20:00,82.7,59.8,29.77,SW,220,5.0,15.0,46,0.00,,---,0.00,190.00,VWS V14.00,2013-04-18 21:20:00,
2013-04-18 17:25:00,82.6,59.1,29.77,SSW,198,4.0,15.0,45,0.00,,---,0.00,153.00,VWS V14.00,2013-04-18 21:25:00,
2013-04-18 17:30:00,82.5,59.7,29.77,SSW,196,2.0,15.0,46,0.00,,---,0.00,230.00,VWS V14.00,2013-04-18 21:30:00,
2013-04-18 17:35:00,82.5,59.7,29.77,South,180,11.0,11.0,46,0.00,,---,0.00,204.00,VWS V14.00,2013-04-18 21:35:00,
2013-04-18 17:40:00,82.6,59.8,29.77,East,92,2.0,12.0,46,0.00,,---,0.00,471.00,VWS V14.00,2013-04-18 21:40:00,
2013-04-18 17:45:00,82.9,60.0,29.77,SE,136,2.0,12.0,46,0.00,,---,0.00,318.00,VWS V14.00,2013-04-18 21:45:00,
2013-04-18 17:50:00,83.0,60.7,29.77,WNW,286,1.0,12.0,47,0.00,,---,0.00,156.00,VWS V14.00,2013-04-18 21:50:00,
2013-04-18 17:55:00,82.8,59.3,29.76,SE,144,8.0,13.0,45,0.00,,---,0.00,378.00,VWS V14.00,2013-04-18 21:55:00,
2013-04-18 18:00:00,82.8,59.9,29.76,WSW,257,0.0,13.0,46,0.00,,---,0.00,316.00,VWS V14.00,2013-04-18 22:00:00,
2013-04-18 18:05:00,82.9,59.4,29.76,SSW,204,2.0,11.0,45,0.00,,---,0.00,192.00,VWS V14.00,2013-04-18 22:05:00,
2013-04-18 18:10:00,82.7,60.4,29.76,SSW,197,1.0,11.0,47,0.00,,---,0.00,93.00,VWS V14.00,2013-04-18 22:10:00,
2013-04-18 18:15:00,82.4,59.6,29.76,SW,218,4.0,12.0,46,0.00,,---,0.00,58.00,VWS V14.00,2013-04-18 22:15:00,
2013-04-18 18:20:00,82.0,59.2,29.77,SE,133,5.0,12.0,46,0.00,,---,0.00,76.00,VWS V14.00,2013-04-18 22:20:00,
2013-04-18 18:26:00,81.8,59.0,29.77,South,170,5.0,13.0,46,0.00,,---,0.00,84.00,VWS V14.00,2013-04-18 22:26:00,
2013-04-18 18:30:00,81.5,58.8,29.76,South,190,5.0,13.0,46,0.00,,---,0.00,77.00,VWS V14.00,2013-04-18 22:30:00,
2013-04-18 18:31:00,81.6,58.8,29.76,WSW,240,4.0,13.0,46,0.00,,---,0.00,74.00,VWS V14.00,2013-04-18 22:31:00,
2013-04-18 18:36:00,81.3,58.6,29.76,WSW,249,4.0,10.0,46,0.00,,---,0.00,90.00,VWS V14.00,2013-04-18 22:36:00,
2013-04-18 18:41:00,81.1,58.4,29.76,SSW,206,3.0,14.0,46,0.00,,---,0.00,88.00,VWS V14.00,2013-04-18 22:41:00,
2013-04-18 18:46:00,80.9,58.2,29.76,SSW,192,5.0,14.0,46,0.00,,---,0.00,97.00,VWS V14.00,2013-04-18 22:46:00,
2013-04-18 18:51:00,80.9,58.2,29.76,SSE,150,5.0,14.0,46,0.00,,---,0.00,97.00,VWS V14.00,2013-04-18 22:51:00,
2013-04-18 18:56:00,80.7,58.6,29.75,South,175,7.0,14.0,47,0.00,,---,0.00,91.00,VWS V14.00,2013-04-18 22:56:00,
2013-04-18 19:00:00,80.6,58.5,29.76,SW,222,4.0,14.0,47,0.00,,---,0.00,93.00,VWS V14.00,2013-04-18 23:00:00,
2013-04-18 19:01:00,80.6,58.5,29.76,South,183,1.0,14.0,47,0.00,,---,0.00,93.00,VWS V14.00,2013-04-18 23:01:00,
2013-04-18 19:06:00,80.4,58.9,29.75,SW,216,2.0,11.0,48,0.00,,---,0.00,98.00,VWS V14.00,2013-04-18 23:06:00,
2013-04-18 19:11:00,80.2,58.8,29.75,South,172,2.0,13.0,48,0.00,,---,0.00,100.00,VWS V14.00,2013-04-18 23:11:00,
2013-04-18 19:16:00,80.0,58.6,29.75,SSE,159,4.0,13.0,48,0.00,,---,0.00,81.00,VWS V14.00,2013-04-18 23:16:00,
2013-04-18 19:21:00,79.8,59.0,29.76,SW,215,8.0,13.0,49,0.00,,---,0.00,58.00,VWS V14.00,2013-04-18 23:21:00,
2013-04-18 19:26:00,79.5,58.7,29.76,SSE,163,7.0,13.0,49,0.00,,---,0.00,49.00,VWS V14.00,2013-04-18 23:26:00,
2013-04-18 19:30:00,79.3,59.1,29.76,SSE,155,2.0,13.0,50,0.00,,---,0.00,44.00,VWS V14.00,2013-04-18 23:30:00,
2013-04-18 19:31:00,79.3,59.1,29.76,SSE,167,1.0,13.0,50,0.00,,---,0.00,44.00,VWS V14.00,2013-04-18 23:31:00,
2013-04-18 19:36:00,78.9,58.7,29.76,SW,215,4.0,15.0,50,0.00,,---,0.00,28.00,VWS V14.00,2013-04-18 23:36:00,
2013-04-18 19:41:00,78.6,59.0,29.76,NW,309,1.0,15.0,51,0.00,,---,0.00,21.00,VWS V14.00,2013-04-18 23:41:00,
2013-04-18 19:46:00,78.3,58.7,29.76,South,184,3.0,15.0,51,0.00,,---,0.00,14.00,VWS V14.00,2013-04-18 23:46:00,
2013-04-18 19:51:00,78.0,59.0,29.76,South,180,2.0,15.0,52,0.00,,---,0.00,9.00,VWS V14.00,2013-04-18 23:51:00,
2013-04-18 19:56:00,77.6,58.6,29.77,SE,134,1.0,15.0,52,0.00,,---,0.00,5.00,VWS V14.00,2013-04-18 23:56:00,
2013-04-18 20:00:00,77.4,59.0,29.77,SSE,157,2.0,16.0,53,0.00,,---,0.00,0.00,VWS V14.00,2013-04-19 00:00:00,
2013-04-18 20:01:00,77.4,59.0,29.77,South,183,6.0,6.0,53,0.00,,---,0.00,0.00,VWS V14.00,2013-04-19 00:01:00,
2013-04-18 20:06:00,77.4,58.4,29.77,ESE,103,5.0,8.0,52,0.00,,---,0.00,0.00,VWS V14.00,2013-04-19 00:06:00,
2013-04-18 20:11:00,77.2,58.2,29.77,SSE,164,6.0,18.0,52,0.00,,---,0.00,0.00,VWS V14.00,2013-04-19 00:11:00,
2013-04-18 20:16:00,77.0,58.6,29.77,South,169,1.0,18.0,53,0.00,,---,0.00,0.00,VWS V14.00,2013-04-19 00:16:00,
2013-04-18 20:21:00,76.7,58.3,29.77,WSW,242,4.0,18.0,53,0.00,,---,0.00,0.00,VWS V14.00,2013-04-19 00:21:00,
2013-04-18 20:26:00,76.4,58.0,29.77,SW,223,4.0,18.0,53,0.00,,---,0.00,0.00,VWS V14.00,2013-04-19 00:26:00,
2013-04-18 20:30:00,76.2,57.8,29.77,SE,143,5.0,18.0,53,0.00,,---,0.00,0.00,VWS V14.00,2013-04-19 00:30:00,
2013-04-18 20:31:00,76.1,58.3,29.77,SE,130,4.0,5.0,54,0.00,,---,0.00,0.00,VWS V14.00,2013-04-19 00:31:00,
2013-04-18 20:36:00,75.9,58.1,29.77,SW,214,5.0,8.0,54,0.00,,---,0.00,0.00,VWS V14.00,2013-04-19 00:36:00,
2013-04-18 20:41:00,75.8,58.0,29.77,South,190,1.0,8.0,54,0.00,,---,0.00,0.00,VWS V14.00,2013-04-19 00:41:00,
2013-04-18 20:46:00,75.6,57.8,29.77,SE,131,2.0,10.0,54,0.00,,---,0.00,0.00,VWS V14.00,2013-04-19 00:46:00,
2013-04-18 20:51:00,75.5,57.7,29.77,SW,232,2.0,13.0,54,0.00,,---,0.00,0.00,VWS V14.00,2013-04-19 00:51:00,
2013-04-18 20:56:00,75.5,57.7,29.78,SW,216,5.0,13.0,54,0.00,,---,0.00,0.00,VWS V14.00,2013-04-19 00:56:00,
2013-04-18 21:00:00,75.4,57.1,29.78,SSW,201,3.0,13.0,53,0.00,,---,0.00,0.00,VWS V14.00,2013-04-19 01:00:00,
2013-04-18 21:01:00,75.4,57.1,29.78,SSW,196,4.0,4.0,53,0.00,,---,0.00,0.00,VWS V14.00,2013-04-19 01:01:00,
2013-04-18 21:06:00,75.3,57.0,29.78,SSW,196,4.0,11.0,53,0.00,,---,0.00,0.00,VWS V14.00,2013-04-19 01:06:00,
2013-04-18 21:11:00,75.2,56.9,29.78,SW,219,5.0,12.0,53,0.00,,---,0.00,0.00,VWS V14.00,2013-04-19 01:11:00,
2013-04-18 21:16:00,75.0,57.2,29.77,SW,220,2.0,12.0,54,0.00,,---,0.00,0.00,VWS V14.00,2013-04-19 01:16:00,
2013-04-18 21:22:00,74.8,57.1,29.77,South,181,4.0,13.0,54,0.00,,---,0.00,0.00,VWS V14.00,2013-04-19 01:22:00,
2013-04-18 21:27:00,74.8,56.5,29.77,ENE,78,3.0,17.0,53,0.00,,---,0.00,0.00,VWS V14.00,2013-04-19 01:27:00,
2013-04-18 21:30:00,74.8,57.1,29.77,SSW,202,3.0,17.0,54,0.00,,---,0.00,0.00,VWS V14.00,2013-04-19 01:30:00,
2013-04-18 21:32:00,74.8,57.1,29.77,SSE,167,8.0,9.0,54,0.00,,---,0.00,0.00,VWS V14.00,2013-04-19 01:32:00,
2013-04-18 21:37:00,74.6,56.9,29.78,SE,138,7.0,13.0,54,0.00,,---,0.00,0.00,VWS V14.00,2013-04-19 01:37:00,
2013-04-18 21:42:00,74.5,56.8,29.78,SE,138,7.0,13.0,54,0.00,,---,0.00,0.00,VWS V14.00,2013-04-19 01:42:00,
2013-04-18 21:47:00,74.2,56.5,29.78,SSW,192,4.0,13.0,54,0.00,,---,0.00,0.00,VWS V14.00,2013-04-19 01:47:00,
2013-04-18 21:52:00,74.1,56.4,29.77,South,181,7.0,13.0,54,0.00,,---,0.00,0.00,VWS V14.00,2013-04-19 01:52:00,
2013-04-18 21:57:00,74.1,56.4,29.77,South,179,0.0,13.0,54,0.00,,---,0.00,0.00,VWS V14.00,2013-04-19 01:57:00,
2013-04-18 22:00:00,74.0,56.8,29.77,ENE,78,3.0,13.0,55,0.00,,---,0.00,0.00,VWS V14.00,2013-04-19 02:00:00,
2013-04-18 22:02:00,74.0,56.8,29.77,SSW,209,4.0,5.0,55,0.00,,---,0.00,0.00,VWS V14.00,2013-04-19 02:02:00,
2013-04-18 22:07:00,73.9,56.7,29.77,South,187,5.0,10.0,55,0.00,,---,0.00,0.00,VWS V14.00,2013-04-19 02:07:00,
2013-04-18 22:12:00,73.8,56.6,29.77,WSW,249,10.0,11.0,55,0.00,,---,0.00,0.00,VWS V14.00,2013-04-19 02:12:00,
2013-04-18 22:17:00,73.7,57.0,29.76,SW,233,3.0,13.0,56,0.00,,---,0.00,0.00,VWS V14.00,2013-04-19 02:17:00,
2013-04-18 22:22:00,73.5,56.9,29.76,SSE,157,6.0,18.0,56,0.00,,---,0.00,0.00,VWS V14.00,2013-04-19 02:22:00,
2013-04-18 22:27:00,73.5,56.9,29.76,WSW,249,5.0,18.0,56,0.00,,---,0.00,0.00,VWS V14.00,2013-04-19 02:27:00,
2013-04-18 22:30:00,73.3,56.7,29.76,SSW,200,4.0,18.0,56,0.00,,---,0.00,0.00,VWS V14.00,2013-04-19 02:30:00,
2013-04-18 22:32:00,73.3,56.7,29.76,SW,230,8.0,8.0,56,0.00,,---,0.00,0.00,VWS V14.00,2013-04-19 02:32:00,
2013-04-18 22:37:00,73.3,56.7,29.76,SSE,149,6.0,15.0,56,0.00,,---,0.00,0.00,VWS V14.00,2013-04-19 02:37:00,
2013-04-18 22:42:00,73.2,56.6,29.76,SW,217,2.0,15.0,56,0.00,,---,0.00,0.00,VWS V14.00,2013-04-19 02:42:00,
2013-04-18 22:47:00,73.2,56.6,29.76,SSE,157,8.0,15.0,56,0.00,,---,0.00,0.00,VWS V14.00,2013-04-19 02:47:00,
2013-04-18 22:52:00,73.1,56.5,29.75,ESE,123,4.0,15.0,56,0.00,,---,0.00,0.00,VWS V14.00,2013-04-19 02:52:00,
2013-04-18 22:57:00,72.9,56.8,29.76,SSE,152,1.0,15.0,57,0.00,,---,0.00,0.00,VWS V14.00,2013-04-19 02:57:00,
2013-04-18 23:00:00,72.8,56.7,29.75,SW,219,5.0,15.0,57,0.00,,---,0.00,0.00,VWS V14.00,2013-04-19 03:00:00,
2013-04-18 23:02:00,72.8,56.7,29.75,ESE,123,12.0,12.0,57,0.00,,---,0.00,0.00,VWS V14.00,2013-04-19 03:02:00,
2013-04-18 23:07:00,72.6,56.5,29.75,SSE,160,6.0,13.0,57,0.00,,---,0.00,0.00,VWS V14.00,2013-04-19 03:07:00,
2013-04-18 23:12:00,72.6,56.5,29.75,SW,223,2.0,13.0,57,0.00,,---,0.00,0.00,VWS V14.00,2013-04-19 03:12:00,
2013-04-18 23:17:00,72.5,56.4,29.75,South,177,9.0,13.0,57,0.00,,---,0.00,0.00,VWS V14.00,2013-04-19 03:17:00,
2013-04-18 23:22:00,72.3,56.2,29.75,SSE,154,4.0,13.0,57,0.00,,---,0.00,0.00,VWS V14.00,2013-04-19 03:22:00,
2013-04-18 23:27:00,72.2,56.1,29.75,NW,323,2.0,13.0,57,0.00,,---,0.00,0.00,VWS V14.00,2013-04-19 03:27:00,
2013-04-18 23:30:00,72.2,56.1,29.75,South,177,7.0,13.0,57,0.00,,---,0.00,0.00,VWS V14.00,2013-04-19 03:30:00,
2013-04-18 23:32:00,72.2,56.1,29.75,South,182,5.0,10.0,57,0.00,,---,0.00,0.00,VWS V14.00,2013-04-19 03:32:00,
2013-04-18 23:37:00,72.2,56.1,29.74,NE,54,3.0,13.0,57,0.00,,---,0.00,0.00,VWS V14.00,2013-04-19 03:37:00,
2013-04-18 23:42:00,72.1,56.0,29.74,SE,129,7.0,13.0,57,0.00,,---,0.00,0.00,VWS V14.00,2013-04-19 03:42:00,
2013-04-18 23:47:00,72.0,55.5,29.74,SSE,165,5.0,13.0,56,0.00,,---,0.00,0.00,VWS V14.00,2013-04-19 03:47:00,
2013-04-18 23:52:00,71.9,55.9,29.73,SSW,207,1.0,13.0,57,0.00,,---,0.00,0.00,VWS V14.00,2013-04-19 03:52:00,
2013-04-18 23:57:00,71.9,55.4,29.73,NNE,13,2.0,13.0,56,0.00,,---,0.00,0.00,VWS V14.00,2013-04-19 03:57:00,